sensor_id;sensor_type;location;lat;lon;timestamp;pressure;altitude;pressure_sealevel;temperature
60949;BMP280;46729;43.010;24.320;2022-08-01T00:01:59;96958.63;;;21.62
60949;BMP280;46729;43.010;24.320;2022-08-01T00:04:26;96950.88;;;21.60
60949;BMP280;46729;43.010;24.320;2022-08-01T00:06:52;96950.34;;;21.68
60949;BMP280;46729;43.010;24.320;2022-08-01T00:09:19;96956.78;;;21.62
60949;BMP280;46729;43.010;24.320;2022-08-01T00:11:46;96951.97;;;21.64
60949;BMP280;46729;43.010;24.320;2022-08-01T00:14:13;96946.88;;;21.58
60949;BMP280;46729;43.010;24.320;2022-08-01T00:16:38;96953.53;;;21.56
60949;BMP280;46729;43.010;24.320;2022-08-01T00:19:05;96945.22;;;21.52
60949;BMP280;46729;43.010;24.320;2022-08-01T00:21:32;96944.72;;;21.55
60949;BMP280;46729;43.010;24.320;2022-08-01T00:23:59;96944.72;;;21.55
60949;BMP280;46729;43.010;24.320;2022-08-01T00:26:25;96954.34;;;21.61
60949;BMP280;46729;43.010;24.320;2022-08-01T00:28:52;96938.06;;;21.57
60949;BMP280;46729;43.010;24.320;2022-08-01T00:31:19;96943.69;;;21.66
60949;BMP280;46729;43.010;24.320;2022-08-01T00:33:46;96937.53;;;21.65
60949;BMP280;46729;43.010;24.320;2022-08-01T00:36:13;96935.91;;;21.50
60949;BMP280;46729;43.010;24.320;2022-08-01T00:38:39;96929.72;;;21.39
60949;BMP280;46729;43.010;24.320;2022-08-01T00:41:05;96923.28;;;21.40
60949;BMP280;46729;43.010;24.320;2022-08-01T00:43:32;96925.38;;;21.34
60949;BMP280;46729;43.010;24.320;2022-08-01T00:45:59;96926.97;;;21.25
60949;BMP280;46729;43.010;24.320;2022-08-01T00:48:25;96925.69;;;21.32
60949;BMP280;46729;43.010;24.320;2022-08-01T00:50:52;96920.06;;;21.38
60949;BMP280;46729;43.010;24.320;2022-08-01T00:53:19;96912.88;;;21.39
60949;BMP280;46729;43.010;24.320;2022-08-01T00:55:47;96917.09;;;21.35
60949;BMP280;46729;43.010;24.320;2022-08-01T00:58:15;96924.56;;;21.23
60949;BMP280;46729;43.010;24.320;2022-08-01T01:00:42;96925.38;;;21.24
60949;BMP280;46729;43.010;24.320;2022-08-01T01:03:08;96916.38;;;21.49
60949;BMP280;46729;43.010;24.320;2022-08-01T01:05:42;96909.44;;;21.58
60949;BMP280;46729;43.010;24.320;2022-08-01T01:08:19;96896.03;;;21.38
60949;BMP280;46729;43.010;24.320;2022-08-01T01:10:56;96900.81;;;21.32
60949;BMP280;46729;43.010;24.320;2022-08-01T01:13:49;96905.56;;;21.20
60949;BMP280;46729;43.010;24.320;2022-08-01T01:16:18;96907.88;;;21.02
60949;BMP280;46729;43.010;24.320;2022-08-01T01:18:47;96893.66;;;20.92
60949;BMP280;46729;43.010;24.320;2022-08-01T01:27:28;96888.63;;;21.00
60949;BMP280;46729;43.010;24.320;2022-08-01T01:30:02;96882.97;;;20.92
60949;BMP280;46729;43.010;24.320;2022-08-01T01:32:47;96876.81;;;20.91
60949;BMP280;46729;43.010;24.320;2022-08-01T01:35:24;96876.22;;;20.75
60949;BMP280;46729;43.010;24.320;2022-08-01T01:37:55;96874.34;;;20.70
60949;BMP280;46729;43.010;24.320;2022-08-01T01:40:23;96873.22;;;20.66
60949;BMP280;46729;43.010;24.320;2022-08-01T01:42:51;96864.41;;;20.61
60949;BMP280;46729;43.010;24.320;2022-08-01T01:45:18;96861.38;;;20.48
60949;BMP280;46729;43.010;24.320;2022-08-01T01:47:45;96848.69;;;20.74
60949;BMP280;46729;43.010;24.320;2022-08-01T01:50:13;96854.78;;;20.60
60949;BMP280;46729;43.010;24.320;2022-08-01T01:52:42;96848.41;;;20.66
60949;BMP280;46729;43.010;24.320;2022-08-01T01:55:11;96836.94;;;20.70
60949;BMP280;46729;43.010;24.320;2022-08-01T01:57:40;96832.16;;;20.72
60949;BMP280;46729;43.010;24.320;2022-08-01T02:00:12;96845.72;;;20.66
60949;BMP280;46729;43.010;24.320;2022-08-01T02:02:41;96836.75;;;20.86
60949;BMP280;46729;43.010;24.320;2022-08-01T02:05:10;96821.78;;;20.80
60949;BMP280;46729;43.010;24.320;2022-08-01T02:07:39;96829.53;;;20.92
60949;BMP280;46729;43.010;24.320;2022-08-01T02:10:09;96838.06;;;20.79
60949;BMP280;46729;43.010;24.320;2022-08-01T02:12:39;96833.75;;;20.73
60949;BMP280;46729;43.010;24.320;2022-08-01T02:15:09;96826.53;;;20.69
60949;BMP280;46729;43.010;24.320;2022-08-01T02:17:43;96827.69;;;20.87
60949;BMP280;46729;43.010;24.320;2022-08-01T02:20:10;96816.75;;;20.94
60949;BMP280;46729;43.010;24.320;2022-08-01T02:23:04;96829.53;;;20.87
60949;BMP280;46729;43.010;24.320;2022-08-01T02:25:48;96818.91;;;21.01
60949;BMP280;46729;43.010;24.320;2022-08-01T02:28:24;96822.13;;;20.99
60949;BMP280;46729;43.010;24.320;2022-08-01T02:30:58;96823.19;;;20.98
60949;BMP280;46729;43.010;24.320;2022-08-01T02:33:33;96821.59;;;21.06
60949;BMP280;46729;43.010;24.320;2022-08-01T02:36:00;96818.91;;;21.01
60949;BMP280;46729;43.010;24.320;2022-08-01T02:38:32;96820.25;;;21.09
60949;BMP280;46729;43.010;24.320;2022-08-01T02:41:05;96815.72;;;21.09
60949;BMP280;46729;43.010;24.320;2022-08-01T02:43:34;96812.25;;;21.04
60949;BMP280;46729;43.010;24.320;2022-08-01T02:46:04;96807.97;;;21.08
60949;BMP280;46729;43.010;24.320;2022-08-01T02:48:34;96811.75;;;21.17
60949;BMP280;46729;43.010;24.320;2022-08-01T02:51:02;96797.09;;;21.24
60949;BMP280;46729;43.010;24.320;2022-08-01T02:53:32;96802.97;;;21.26
60949;BMP280;46729;43.010;24.320;2022-08-01T02:56:05;96816.34;;;21.36
60949;BMP280;46729;43.010;24.320;2022-08-01T02:58:33;96829.19;;;21.43
60949;BMP280;46729;43.010;24.320;2022-08-01T03:01:03;96808.63;;;21.63
60949;BMP280;46729;43.010;24.320;2022-08-01T03:03:31;96803.78;;;21.51
60949;BMP280;46729;43.010;24.320;2022-08-01T03:05:57;96806.22;;;21.52
60949;BMP280;46729;43.010;24.320;2022-08-01T03:08:25;96801.66;;;21.53
60949;BMP280;46729;43.010;24.320;2022-08-01T03:10:53;96808.38;;;21.50
60949;BMP280;46729;43.010;24.320;2022-08-01T03:13:21;96799.81;;;21.68
60949;BMP280;46729;43.010;24.320;2022-08-01T03:15:50;96809.16;;;21.65
60949;BMP280;46729;43.010;24.320;2022-08-01T03:18:18;96810.78;;;21.57
60949;BMP280;46729;43.010;24.320;2022-08-01T03:20:45;96811.56;;;21.57
60949;BMP280;46729;43.010;24.320;2022-08-01T03:23:12;96813.19;;;21.63
60949;BMP280;46729;43.010;24.320;2022-08-01T03:25:41;96806.22;;;21.72
60949;BMP280;46729;43.010;24.320;2022-08-01T03:28:13;96805.69;;;21.75
60949;BMP280;46729;43.010;24.320;2022-08-01T03:30:42;96802.22;;;21.74
60949;BMP280;46729;43.010;24.320;2022-08-01T03:33:09;96816.94;;;21.72
60949;BMP280;46729;43.010;24.320;2022-08-01T03:35:44;96807.84;;;21.73
60949;BMP280;46729;43.010;24.320;2022-08-01T03:38:13;96815.84;;;21.73
60949;BMP280;46729;43.010;24.320;2022-08-01T03:40:47;96823.06;;;21.72
60949;BMP280;46729;43.010;24.320;2022-08-01T03:43:19;96817.97;;;21.85
60949;BMP280;46729;43.010;24.320;2022-08-01T03:45:50;96818.00;;;21.80
60949;BMP280;46729;43.010;24.320;2022-08-01T03:48:19;96816.38;;;21.79
60949;BMP280;46729;43.010;24.320;2022-08-01T03:50:50;96818.78;;;21.86
60949;BMP280;46729;43.010;24.320;2022-08-01T03:53:22;96821.78;;;21.89
60949;BMP280;46729;43.010;24.320;2022-08-01T03:55:51;96818.56;;;21.92
60949;BMP280;46729;43.010;24.320;2022-08-01T03:58:20;96816.97;;;21.91
60949;BMP280;46729;43.010;24.320;2022-08-01T04:00:47;96826.59;;;21.87
60949;BMP280;46729;43.010;24.320;2022-08-01T04:03:15;96818.81;;;21.76
60949;BMP280;46729;43.010;24.320;2022-08-01T04:05:42;96822.00;;;21.58
60949;BMP280;46729;43.010;24.320;2022-08-01T04:08:09;96824.66;;;21.39
60949;BMP280;46729;43.010;24.320;2022-08-01T04:10:37;96821.47;;;21.42
60949;BMP280;46729;43.010;24.320;2022-08-01T04:13:04;96822.25;;;21.47
60949;BMP280;46729;43.010;24.320;2022-08-01T04:15:31;96826.00;;;21.41
60949;BMP280;46729;43.010;24.320;2022-08-01T04:17:58;96819.56;;;21.33
60949;BMP280;46729;43.010;24.320;2022-08-01T04:20:25;96826.00;;;21.41
60949;BMP280;46729;43.010;24.320;2022-08-01T04:22:52;96831.34;;;21.46
60949;BMP280;46729;43.010;24.320;2022-08-01T04:25:25;96830.81;;;21.49
60949;BMP280;46729;43.010;24.320;2022-08-01T04:27:54;96821.72;;;21.60
60949;BMP280;46729;43.010;24.320;2022-08-01T04:30:27;96821.72;;;21.60
60949;BMP280;46729;43.010;24.320;2022-08-01T04:32:58;96833.25;;;21.65
60949;BMP280;46729;43.010;24.320;2022-08-01T04:35:27;96820.94;;;21.74
60949;BMP280;46729;43.010;24.320;2022-08-01T04:37:55;96826.81;;;21.71
60949;BMP280;46729;43.010;24.320;2022-08-01T04:40:22;96813.22;;;21.92
60949;BMP280;46729;43.010;24.320;2022-08-01T04:42:49;96818.25;;;22.13
60949;BMP280;46729;43.010;24.320;2022-08-01T04:45:17;96822.53;;;22.24
60949;BMP280;46729;43.010;24.320;2022-08-01T04:47:45;96814.22;;;22.35
60949;BMP280;46729;43.010;24.320;2022-08-01T04:50:14;96824.91;;;22.50
60949;BMP280;46729;43.010;24.320;2022-08-01T04:52:40;96811.28;;;22.32
60949;BMP280;46729;43.010;24.320;2022-08-01T04:55:09;96805.66;;;22.28
60949;BMP280;46729;43.010;24.320;2022-08-01T04:57:39;96811.56;;;22.25
60949;BMP280;46729;43.010;24.320;2022-08-01T05:00:08;96810.72;;;22.39
60949;BMP280;46729;43.010;24.320;2022-08-01T05:02:34;96805.66;;;22.28
60949;BMP280;46729;43.010;24.320;2022-08-01T05:05:02;96811.56;;;22.25
60949;BMP280;46729;43.010;24.320;2022-08-01T05:07:29;96823.09;;;21.96
60949;BMP280;46729;43.010;24.320;2022-08-01T05:09:56;96809.44;;;21.78
60949;BMP280;46729;43.010;24.320;2022-08-01T05:12:23;96817.44;;;21.78
60949;BMP280;46729;43.010;24.320;2022-08-01T05:14:49;96818.81;;;21.76
60949;BMP280;46729;43.010;24.320;2022-08-01T05:17:15;96818.28;;;21.74
60949;BMP280;46729;43.010;24.320;2022-08-01T05:19:42;96817.72;;;21.77
60949;BMP280;46729;43.010;24.320;2022-08-01T05:22:09;96824.94;;;21.76
60949;BMP280;46729;43.010;24.320;2022-08-01T05:24:38;96821.75;;;21.84
60949;BMP280;46729;43.010;24.320;2022-08-01T05:27:06;96825.78;;;21.92
60949;BMP280;46729;43.010;24.320;2022-08-01T05:29:34;96822.28;;;22.06
60949;BMP280;46729;43.010;24.320;2022-08-01T05:32:02;96824.97;;;22.15
60949;BMP280;46729;43.010;24.320;2022-08-01T05:34:29;96820.69;;;22.19
60949;BMP280;46729;43.010;24.320;2022-08-01T05:36:56;96829.22;;;22.21
60949;BMP280;46729;43.010;24.320;2022-08-01T05:39:22;96824.94;;;22.20
60949;BMP280;46729;43.010;24.320;2022-08-01T05:41:49;96825.75;;;22.31
60949;BMP280;46729;43.010;24.320;2022-08-01T05:44:16;96822.47;;;22.48
60949;BMP280;46729;43.010;24.320;2022-08-01T05:46:42;96812.84;;;22.62
60949;BMP280;46729;43.010;24.320;2022-08-01T05:49:09;96817.91;;;22.68
60949;BMP280;46729;43.010;24.320;2022-08-01T05:51:36;96815.47;;;22.72
60949;BMP280;46729;43.010;24.320;2022-08-01T05:54:03;96798.03;;;22.84
60949;BMP280;46729;43.010;24.320;2022-08-01T05:56:30;96806.28;;;22.92
60949;BMP280;46729;43.010;24.320;2022-08-01T05:58:57;96802.00;;;22.96
60949;BMP280;46729;43.010;24.320;2022-08-01T06:01:24;96800.56;;;23.13
60949;BMP280;46729;43.010;24.320;2022-08-01T06:03:51;96790.81;;;23.27
60949;BMP280;46729;43.010;24.320;2022-08-01T06:06:21;96792.69;;;23.26
60949;BMP280;46729;43.010;24.320;2022-08-01T06:08:48;96800.25;;;23.14
60949;BMP280;46729;43.010;24.320;2022-08-01T06:11:15;96805.41;;;23.06
60949;BMP280;46729;43.010;24.320;2022-08-01T06:13:42;96811.91;;;22.95
60949;BMP280;46729;43.010;24.320;2022-08-01T06:16:09;96800.69;;;22.84
60949;BMP280;46729;43.010;24.320;2022-08-01T06:18:36;96795.31;;;22.89
60949;BMP280;46729;43.010;24.320;2022-08-01T06:21:03;96801.38;;;23.09
60949;BMP280;46729;43.010;24.320;2022-08-01T06:23:30;96802.47;;;23.08
60949;BMP280;46729;43.010;24.320;2022-08-01T06:25:57;96816.16;;;23.01
60949;BMP280;46729;43.010;24.320;2022-08-01T06:28:24;96806.88;;;23.36
60949;BMP280;46729;43.010;24.320;2022-08-01T06:30:51;96793.16;;;23.48
60949;BMP280;46729;43.010;24.320;2022-08-01T06:33:18;96796.19;;;23.31
60949;BMP280;46729;43.010;24.320;2022-08-01T06:35:45;96803.97;;;23.23
60949;BMP280;46729;43.010;24.320;2022-08-01T06:38:12;96827.66;;;23.11
60949;BMP280;46729;43.010;24.320;2022-08-01T06:40:39;96810.75;;;23.06
60949;BMP280;46729;43.010;24.320;2022-08-01T06:43:06;96827.38;;;23.13
60949;BMP280;46729;43.010;24.320;2022-08-01T06:45:31;96819.66;;;22.97
60949;BMP280;46729;43.010;24.320;2022-08-01T06:47:58;96831.19;;;22.97
60949;BMP280;46729;43.010;24.320;2022-08-01T06:50:25;96811.66;;;22.92
60949;BMP280;46729;43.010;24.320;2022-08-01T06:52:51;96838.41;;;22.97
60949;BMP280;46729;43.010;24.320;2022-08-01T06:55:18;96821.41;;;23.30
60949;BMP280;46729;43.010;24.320;2022-08-01T06:57:52;96826.47;;;23.37
60949;BMP280;46729;43.010;24.320;2022-08-01T07:00:23;96824.78;;;23.46
60949;BMP280;46729;43.010;24.320;2022-08-01T07:02:55;96822.66;;;23.48
60949;BMP280;46729;43.010;24.320;2022-08-01T07:05:22;96815.78;;;23.69
60949;BMP280;46729;43.010;24.320;2022-08-01T07:07:50;96842.22;;;23.86
60949;BMP280;46729;43.010;24.320;2022-08-01T07:10:17;96831.38;;;24.00
60949;BMP280;46729;43.010;24.320;2022-08-01T07:12:44;96814.09;;;24.11
60949;BMP280;46729;43.010;24.320;2022-08-01T07:15:11;96834.84;;;24.06
60949;BMP280;46729;43.010;24.320;2022-08-01T07:17:42;96840.56;;;23.57
60949;BMP280;46729;43.010;24.320;2022-08-01T07:20:11;96821.41;;;23.68
60949;BMP280;46729;43.010;24.320;2022-08-01T07:22:38;96806.59;;;24.13
60949;BMP280;46729;43.010;24.320;2022-08-01T07:25:05;96815.44;;;24.41
60949;BMP280;46729;43.010;24.320;2022-08-01T07:27:33;96813.13;;;24.30
60949;BMP280;46729;43.010;24.320;2022-08-01T07:30:00;96826.97;;;24.14
60949;BMP280;46729;43.010;24.320;2022-08-01T07:32:26;96832.16;;;24.06
60949;BMP280;46729;43.010;24.320;2022-08-01T07:34:54;96829.81;;;23.99
60949;BMP280;46729;43.010;24.320;2022-08-01T07:37:21;96818.31;;;23.84
60949;BMP280;46729;43.010;24.320;2022-08-01T07:39:50;96821.25;;;23.87
60949;BMP280;46729;43.010;24.320;2022-08-01T07:42:17;96819.19;;;23.80
60949;BMP280;46729;43.010;24.320;2022-08-01T07:44:43;96830.31;;;23.59
60949;BMP280;46729;43.010;24.320;2022-08-01T07:47:09;96834.13;;;23.53
60949;BMP280;46729;43.010;24.320;2022-08-01T07:49:36;96830.97;;;23.46
60949;BMP280;46729;43.010;24.320;2022-08-01T07:52:03;96837.22;;;23.69
60949;BMP280;46729;43.010;24.320;2022-08-01T07:54:31;96843.16;;;23.67
60949;BMP280;46729;43.010;24.320;2022-08-01T07:56:58;96837.13;;;23.84
60949;BMP280;46729;43.010;24.320;2022-08-01T07:59:25;96833.94;;;23.82
60949;BMP280;46729;43.010;24.320;2022-08-01T08:01:51;96837.16;;;23.79
60949;BMP280;46729;43.010;24.320;2022-08-01T08:04:17;96840.59;;;23.85
60949;BMP280;46729;43.010;24.320;2022-08-01T08:06:43;96826.09;;;23.90
60949;BMP280;46729;43.010;24.320;2022-08-01T08:09:10;96836.56;;;24.25
60949;BMP280;46729;43.010;24.320;2022-08-01T08:11:36;96833.25;;;24.32
60949;BMP280;46729;43.010;24.320;2022-08-01T08:14:01;96826.63;;;24.25
60949;BMP280;46729;43.010;24.320;2022-08-01T08:16:27;96816.34;;;24.55
60949;BMP280;46729;43.010;24.320;2022-08-01T08:18:53;96818.47;;;25.03
60949;BMP280;46729;43.010;24.320;2022-08-01T08:21:19;96813.84;;;25.32
60949;BMP280;46729;43.010;24.320;2022-08-01T08:24:03;96799.53;;;25.54
60949;BMP280;46729;43.010;24.320;2022-08-01T08:26:53;96806.56;;;25.68
60949;BMP280;46729;43.010;24.320;2022-08-01T08:29:20;96803.31;;;25.71
60949;BMP280;46729;43.010;24.320;2022-08-01T08:31:48;96802.84;;;25.64
60949;BMP280;46729;43.010;24.320;2022-08-01T08:34:15;96808.03;;;25.79
60949;BMP280;46729;43.010;24.320;2022-08-01T08:36:42;96801.97;;;25.87
60949;BMP280;46729;43.010;24.320;2022-08-01T08:39:09;96802.44;;;26.07
60949;BMP280;46729;43.010;24.320;2022-08-01T08:41:36;96812.13;;;26.08
60949;BMP280;46729;43.010;24.320;2022-08-01T08:44:08;96814.69;;;25.99
60949;BMP280;46729;43.010;24.320;2022-08-01T08:46:47;96826.91;;;26.10
60949;BMP280;46729;43.010;24.320;2022-08-01T08:49:19;96802.50;;;26.20
60949;BMP280;46729;43.010;24.320;2022-08-01T08:51:51;96798.06;;;26.42
60949;BMP280;46729;43.010;24.320;2022-08-01T08:54:21;96797.56;;;26.40
60949;BMP280;46729;43.010;24.320;2022-08-01T08:56:52;96788.72;;;26.53
60949;BMP280;46729;43.010;24.320;2022-08-01T08:59:19;96801.69;;;26.06
60949;BMP280;46729;43.010;24.320;2022-08-01T09:01:47;96807.81;;;25.94
60949;BMP280;46729;43.010;24.320;2022-08-01T09:04:14;96803.56;;;26.06
60949;BMP280;46729;43.010;24.320;2022-08-01T09:06:41;96798.56;;;26.31
60949;BMP280;46729;43.010;24.320;2022-08-01T09:09:08;96793.41;;;26.60
60949;BMP280;46729;43.010;24.320;2022-08-01T09:11:36;96783.16;;;26.49
60949;BMP280;46729;43.010;24.320;2022-08-01T09:16:44;96792.28;;;25.86
60949;BMP280;46729;43.010;24.320;2022-08-01T09:19:19;96801.19;;;26.17
60949;BMP280;46729;43.010;24.320;2022-08-01T09:21:57;96775.91;;;26.45
60949;BMP280;46729;43.010;24.320;2022-08-01T09:24:30;96797.28;;;26.10
60949;BMP280;46729;43.010;24.320;2022-08-01T09:26:58;96792.47;;;25.58
60949;BMP280;46729;43.010;24.320;2022-08-01T09:29:28;96799.97;;;25.61
60949;BMP280;46729;43.010;24.320;2022-08-01T09:31:55;96794.00;;;26.13
60949;BMP280;46729;43.010;24.320;2022-08-01T09:34:29;96785.56;;;26.33
60949;BMP280;46729;43.010;24.320;2022-08-01T09:37:02;96805.13;;;25.94
60949;BMP280;46729;43.010;24.320;2022-08-01T09:39:33;96788.38;;;25.79
60949;BMP280;46729;43.010;24.320;2022-08-01T09:42:27;96769.25;;;25.80
60949;BMP280;46729;43.010;24.320;2022-08-01T09:44:54;96780.69;;;26.35
60949;BMP280;46729;43.010;24.320;2022-08-01T09:47:37;96792.75;;;26.37
60949;BMP280;46729;43.010;24.320;2022-08-01T09:50:04;96778.94;;;26.12
60949;BMP280;46729;43.010;24.320;2022-08-01T09:52:32;96807.31;;;26.23
60949;BMP280;46729;43.010;24.320;2022-08-01T09:55:04;96793.53;;;25.93
60949;BMP280;46729;43.010;24.320;2022-08-01T09:57:31;96781.81;;;25.84
60949;BMP280;46729;43.010;24.320;2022-08-01T10:00:00;96795.56;;;25.83
60949;BMP280;46729;43.010;24.320;2022-08-01T10:02:38;96792.84;;;25.88
60949;BMP280;46729;43.010;24.320;2022-08-01T10:05:09;96771.03;;;26.47
60949;BMP280;46729;43.010;24.320;2022-08-01T10:07:56;96778.44;;;26.55
60949;BMP280;46729;43.010;24.320;2022-08-01T10:10:23;96781.53;;;26.88
60949;BMP280;46729;43.010;24.320;2022-08-01T10:12:51;96779.06;;;26.65
60949;BMP280;46729;43.010;24.320;2022-08-01T10:15:27;96775.06;;;26.49
60949;BMP280;46729;43.010;24.320;2022-08-01T10:17:58;96782.97;;;26.28
60949;BMP280;46729;43.010;24.320;2022-08-01T10:20:29;96777.13;;;26.52
60949;BMP280;46729;43.010;24.320;2022-08-01T10:23:01;96779.84;;;26.52
60949;BMP280;46729;43.010;24.320;2022-08-01T10:25:34;96776.41;;;26.47
60949;BMP280;46729;43.010;24.320;2022-08-01T10:28:17;96767.19;;;26.92
60949;BMP280;46729;43.010;24.320;2022-08-01T10:30:45;96756.41;;;27.40
60949;BMP280;46729;43.010;24.320;2022-08-01T10:33:14;96764.31;;;27.36
60949;BMP280;46729;43.010;24.320;2022-08-01T10:35:41;96762.78;;;26.83
60949;BMP280;46729;43.010;24.320;2022-08-01T10:38:08;96767.28;;;26.61
60949;BMP280;46729;43.010;24.320;2022-08-01T10:40:35;96752.91;;;26.78
60949;BMP280;46729;43.010;24.320;2022-08-01T10:43:02;96749.63;;;27.42
60949;BMP280;46729;43.010;24.320;2022-08-01T10:45:29;96753.94;;;27.30
60949;BMP280;46729;43.010;24.320;2022-08-01T10:48:02;96750.88;;;27.23
60949;BMP280;46729;43.010;24.320;2022-08-01T10:50:33;96759.78;;;27.45
60949;BMP280;46729;43.010;24.320;2022-08-01T10:53:17;96744.22;;;27.77
60949;BMP280;46729;43.010;24.320;2022-08-01T10:56:03;96759.59;;;27.98
60949;BMP280;46729;43.010;24.320;2022-08-01T10:58:32;96745.81;;;27.99
60949;BMP280;46729;43.010;24.320;2022-08-01T11:01:33;96744.03;;;27.73
60949;BMP280;46729;43.010;24.320;2022-08-01T11:04:10;96750.56;;;27.59
60949;BMP280;46729;43.010;24.320;2022-08-01T11:09:40;96728.56;;;28.30
60949;BMP280;46729;43.010;24.320;2022-08-01T11:12:12;96753.97;;;27.86
60949;BMP280;46729;43.010;24.320;2022-08-01T11:17:40;96752.25;;;27.55
60949;BMP280;46729;43.010;24.320;2022-08-01T11:20:21;96736.00;;;28.03
60949;BMP280;46729;43.010;24.320;2022-08-01T11:28:19;96726.88;;;28.50
60949;BMP280;46729;43.010;24.320;2022-08-01T11:33:47;96740.59;;;27.81
60949;BMP280;46729;43.010;24.320;2022-08-01T11:36:17;96745.41;;;28.14
60949;BMP280;46729;43.010;24.320;2022-08-01T11:41:33;96723.31;;;28.33
60949;BMP280;46729;43.010;24.320;2022-08-01T11:44:20;96732.66;;;28.28
60949;BMP280;46729;43.010;24.320;2022-08-01T11:46:57;96725.53;;;28.69
60949;BMP280;46729;43.010;24.320;2022-08-01T11:52:14;96732.00;;;28.01
60949;BMP280;46729;43.010;24.320;2022-08-01T11:54:51;96726.03;;;27.91
60949;BMP280;46729;43.010;24.320;2022-08-01T11:57:23;96718.25;;;28.40
60949;BMP280;46729;43.010;24.320;2022-08-01T11:59:57;96723.22;;;28.47
60949;BMP280;46729;43.010;24.320;2022-08-01T12:02:29;96712.50;;;28.71
60949;BMP280;46729;43.010;24.320;2022-08-01T12:05:00;96721.53;;;28.08
60949;BMP280;46729;43.010;24.320;2022-08-01T12:07:29;96728.28;;;28.48
60949;BMP280;46729;43.010;24.320;2022-08-01T12:10:07;96719.66;;;28.30
60949;BMP280;46729;43.010;24.320;2022-08-01T12:12:37;96724.59;;;28.36
60949;BMP280;46729;43.010;24.320;2022-08-01T12:15:06;96711.66;;;28.25
60949;BMP280;46729;43.010;24.320;2022-08-01T12:17:39;96725.06;;;27.87
60949;BMP280;46729;43.010;24.320;2022-08-01T12:20:11;96718.78;;;27.99
60949;BMP280;46729;43.010;24.320;2022-08-01T12:22:38;96717.84;;;27.95
60949;BMP280;46729;43.010;24.320;2022-08-01T12:25:14;96714.72;;;28.10
60949;BMP280;46729;43.010;24.320;2022-08-01T12:27:44;96704.69;;;28.70
60949;BMP280;46729;43.010;24.320;2022-08-01T12:30:13;96700.56;;;28.72
60949;BMP280;46729;43.010;24.320;2022-08-01T12:32:44;96687.91;;;28.81
60949;BMP280;46729;43.010;24.320;2022-08-01T12:35:14;96689.34;;;28.95
60949;BMP280;46729;43.010;24.320;2022-08-01T12:37:46;96693.34;;;29.06
60949;BMP280;46729;43.010;24.320;2022-08-01T12:40:24;96692.88;;;28.58
60949;BMP280;46729;43.010;24.320;2022-08-01T12:42:57;96703.81;;;28.99
60949;BMP280;46729;43.010;24.320;2022-08-01T12:45:27;96687.47;;;29.12
60949;BMP280;46729;43.010;24.320;2022-08-01T12:47:55;96683.34;;;29.07
60949;BMP280;46729;43.010;24.320;2022-08-01T12:50:29;96690.00;;;29.09
60949;BMP280;46729;43.010;24.320;2022-08-01T12:52:57;96693.19;;;29.19
60949;BMP280;46729;43.010;24.320;2022-08-01T12:55:26;96688.75;;;29.31
60949;BMP280;46729;43.010;24.320;2022-08-01T12:58:09;96679.69;;;29.61
60949;BMP280;46729;43.010;24.320;2022-08-01T13:00:37;96688.06;;;28.93
60949;BMP280;46729;43.010;24.320;2022-08-01T13:03:17;96686.06;;;29.73
60949;BMP280;46729;43.010;24.320;2022-08-01T13:05:51;96690.63;;;30.14
60949;BMP280;46729;43.010;24.320;2022-08-01T13:08:34;96683.03;;;29.74
60949;BMP280;46729;43.010;24.320;2022-08-01T13:16:11;96688.47;;;28.70
60949;BMP280;46729;43.010;24.320;2022-08-01T13:18:39;96681.81;;;28.30
60949;BMP280;46729;43.010;24.320;2022-08-01T13:21:14;96691.72;;;28.80
60949;BMP280;46729;43.010;24.320;2022-08-01T13:23:59;96680.19;;;29.38
60949;BMP280;46729;43.010;24.320;2022-08-01T13:26:46;96668.22;;;29.88
60949;BMP280;46729;43.010;24.320;2022-08-01T13:29:18;96676.50;;;29.92
60949;BMP280;46729;43.010;24.320;2022-08-01T13:31:46;96681.91;;;30.00
60949;BMP280;46729;43.010;24.320;2022-08-01T13:34:13;96667.53;;;30.08
60949;BMP280;46729;43.010;24.320;2022-08-01T13:36:40;96668.38;;;29.83
60949;BMP280;46729;43.010;24.320;2022-08-01T13:39:07;96667.91;;;29.65
60949;BMP280;46729;43.010;24.320;2022-08-01T13:41:52;96671.22;;;29.87
60949;BMP280;46729;43.010;24.320;2022-08-01T13:44:19;96675.88;;;29.37
60949;BMP280;46729;43.010;24.320;2022-08-01T13:46:45;96675.34;;;28.93
60949;BMP280;46729;43.010;24.320;2022-08-01T13:49:14;96681.22;;;28.87
60949;BMP280;46729;43.010;24.320;2022-08-01T13:51:41;96667.84;;;28.82
60949;BMP280;46729;43.010;24.320;2022-08-01T13:54:08;96664.72;;;29.13
60949;BMP280;46729;43.010;24.320;2022-08-01T13:56:35;96664.25;;;29.28
60949;BMP280;46729;43.010;24.320;2022-08-01T13:59:01;96654.81;;;29.01
60949;BMP280;46729;43.010;24.320;2022-08-01T14:01:27;96669.03;;;29.14
60949;BMP280;46729;43.010;24.320;2022-08-01T14:03:54;96649.41;;;29.17
60949;BMP280;46729;43.010;24.320;2022-08-01T14:06:21;96649.91;;;29.27
60949;BMP280;46729;43.010;24.320;2022-08-01T14:08:48;96680.94;;;29.13
60949;BMP280;46729;43.010;24.320;2022-08-01T14:11:16;96666.25;;;28.13
60949;BMP280;46729;43.010;24.320;2022-08-01T14:13:42;96660.63;;;28.69
60949;BMP280;46729;43.010;24.320;2022-08-01T14:16:09;96667.63;;;28.70
60949;BMP280;46729;43.010;24.320;2022-08-01T14:18:35;96658.00;;;28.48
60949;BMP280;46729;43.010;24.320;2022-08-01T14:21:03;96666.69;;;28.29
60949;BMP280;46729;43.010;24.320;2022-08-01T14:23:29;96671.66;;;28.13
60949;BMP280;46729;43.010;24.320;2022-08-01T14:25:58;96666.72;;;28.07
60949;BMP280;46729;43.010;24.320;2022-08-01T14:28:27;96663.31;;;27.93
60949;BMP280;46729;43.010;24.320;2022-08-01T14:30:57;96666.72;;;28.07
60949;BMP280;46729;43.010;24.320;2022-08-01T14:33:25;96658.81;;;28.10
60949;BMP280;46729;43.010;24.320;2022-08-01T14:35:52;96663.22;;;28.07
60949;BMP280;46729;43.010;24.320;2022-08-01T14:38:19;96658.53;;;27.91
60949;BMP280;46729;43.010;24.320;2022-08-01T14:40:46;96684.31;;;27.75
60949;BMP280;46729;43.010;24.320;2022-08-01T14:43:18;96677.94;;;27.71
60949;BMP280;46729;43.010;24.320;2022-08-01T14:45:45;96681.31;;;27.76